createdAt,value
2023-04-20T00:02:16.927Z,68.93
2023-04-20T00:04:43.643Z,68.60
2023-04-20T00:07:10.331Z,72.93
2023-04-20T00:09:36.917Z,69.63
2023-04-20T00:12:03.437Z,74.00
2023-04-20T00:14:30.025Z,77.23
2023-04-20T00:16:56.637Z,73.73
2023-04-20T00:19:23.414Z,71.00
2023-04-20T00:21:50.097Z,68.23
2023-04-20T00:24:16.616Z,70.10
2023-04-20T00:26:43.086Z,68.53
2023-04-20T00:29:09.539Z,74.83
2023-04-20T00:31:36.234Z,74.00
2023-04-20T00:34:02.693Z,70.17
2023-04-20T00:36:30.152Z,74.57
2023-04-20T00:38:56.819Z,70.03
2023-04-20T00:41:23.548Z,77.20
2023-04-20T00:43:51.412Z,73.10
2023-04-20T00:46:18.438Z,72.53
2023-04-20T00:48:45.097Z,79.37
2023-04-20T00:51:11.556Z,74.47
2023-04-20T00:53:38.013Z,82.53
2023-04-20T00:56:04.659Z,74.13
2023-04-20T00:58:31.155Z,80.87
2023-04-20T01:00:57.729Z,77.90
2023-04-20T01:03:24.317Z,76.77
2023-04-20T01:05:51.693Z,76.30
2023-04-20T01:08:18.170Z,83.13
2023-04-20T01:10:45.052Z,79.97
2023-04-20T01:13:11.646Z,83.53
2023-04-20T01:15:38.215Z,84.23
2023-04-20T01:18:07.000Z,83.10
2023-04-20T01:20:34.685Z,88.00
2023-04-20T01:23:01.381Z,85.53
2023-04-20T01:25:27.873Z,83.53
2023-04-20T01:27:54.363Z,80.20
2023-04-20T01:30:20.815Z,78.17
2023-04-20T01:32:47.402Z,84.67
2023-04-20T01:35:14.026Z,82.70
2023-04-20T01:37:40.661Z,81.10
2023-04-20T01:40:10.359Z,77.60
2023-04-20T01:42:36.908Z,70.80
2023-04-20T01:45:04.712Z,78.17
2023-04-20T01:47:31.330Z,77.33
2023-04-20T01:49:57.939Z,72.73
2023-04-20T01:52:24.423Z,76.33
2023-04-20T01:54:50.919Z,74.57
2023-04-20T01:57:17.573Z,72.43
2023-04-20T01:59:44.133Z,71.73
2023-04-20T02:02:10.731Z,77.47
2023-04-20T02:04:37.366Z,68.90
2023-04-20T02:07:03.858Z,70.03
2023-04-20T02:09:30.330Z,70.47
2023-04-20T02:11:57.025Z,71.30
2023-04-20T02:14:23.594Z,69.80
2023-04-20T02:16:50.472Z,64.60
2023-04-20T02:19:17.194Z,68.23
2023-04-20T02:21:43.920Z,69.03
2023-04-20T02:24:10.506Z,72.90
2023-04-20T02:26:37.022Z,63.37
2023-04-20T02:29:03.574Z,69.33
2023-04-20T02:31:30.095Z,69.87
2023-04-20T02:33:56.724Z,65.90
2023-04-20T02:36:23.278Z,67.33
2023-04-20T02:38:49.737Z,63.87
2023-04-20T02:41:16.202Z,63.37
2023-04-20T02:43:42.693Z,59.63
2023-04-20T02:46:09.303Z,61.60
2023-04-20T02:48:35.846Z,66.50
2023-04-20T02:51:02.362Z,65.07
2023-04-20T02:53:28.897Z,64.90
2023-04-20T02:55:56.417Z,66.00
2023-04-20T02:58:22.884Z,64.17
2023-04-20T03:00:49.367Z,64.10
2023-04-20T03:03:15.936Z,61.47
2023-04-20T03:05:42.649Z,61.23
2023-04-20T03:08:09.182Z,66.13
2023-04-20T03:10:35.802Z,61.97
2023-04-20T03:13:02.316Z,63.87
2023-04-20T03:15:28.900Z,64.67
2023-04-20T03:17:55.482Z,58.80
2023-04-20T03:20:22.068Z,64.50
2023-04-20T03:22:48.683Z,59.40
2023-04-20T03:25:15.399Z,58.73
2023-04-20T03:27:41.933Z,60.13
2023-04-20T03:30:08.864Z,58.17
2023-04-20T03:32:35.557Z,59.63
2023-04-20T03:35:02.115Z,57.33
2023-04-20T03:37:28.621Z,59.70
2023-04-20T03:39:55.068Z,57.27
2023-04-20T03:42:21.597Z,58.83
2023-04-20T03:44:48.244Z,60.70
2023-04-20T03:47:14.837Z,58.83
2023-04-20T03:49:41.294Z,59.53
2023-04-20T03:52:07.763Z,62.17
2023-04-20T03:54:34.386Z,52.73
2023-04-20T03:57:01.148Z,59.57
2023-04-20T03:59:27.825Z,51.60
2023-04-20T04:01:54.845Z,52.47
2023-04-20T04:04:21.704Z,52.97
2023-04-20T04:06:48.568Z,51.40
2023-04-20T04:09:15.412Z,53.30
2023-04-20T04:11:42.088Z,54.83
2023-04-20T04:14:08.568Z,54.73
2023-04-20T04:16:35.132Z,56.10
2023-04-20T04:19:01.726Z,54.97
2023-04-20T04:21:29.025Z,54.83
2023-04-20T04:23:56.043Z,55.20
2023-04-20T04:26:24.856Z,55.60
2023-04-20T04:28:51.956Z,60.60
2023-04-20T04:31:19.600Z,56.40
2023-04-20T04:33:46.497Z,56.77
2023-04-20T04:36:15.341Z,58.90
2023-04-20T04:38:44.654Z,56.13
2023-04-20T04:41:12.834Z,51.83
2023-04-20T04:43:42.379Z,55.63
2023-04-20T04:46:12.569Z,53.40
2023-04-20T04:48:43.570Z,56.80
2023-04-20T04:51:10.139Z,49.30
2023-04-20T04:53:37.135Z,51.87
2023-04-20T04:56:03.944Z,54.10
2023-04-20T04:58:31.056Z,53.23
2023-04-20T05:00:57.651Z,59.03
2023-04-20T05:03:24.368Z,52.23
2023-04-20T05:05:51.138Z,55.80
2023-04-20T05:08:17.638Z,55.77
2023-04-20T05:10:44.127Z,51.53
2023-04-20T05:13:10.729Z,55.77
2023-04-20T05:15:37.201Z,54.03
2023-04-20T05:18:04.051Z,56.23
2023-04-20T05:20:30.613Z,55.17
2023-04-20T05:22:57.141Z,52.73
2023-04-20T05:25:23.646Z,50.07
2023-04-20T05:27:50.339Z,54.90
2023-04-20T05:30:20.212Z,54.00
2023-04-20T05:32:51.123Z,60.77
2023-04-20T05:35:18.217Z,57.27
2023-04-20T05:37:44.742Z,59.13
2023-04-20T05:40:11.926Z,54.93
2023-04-20T05:42:39.170Z,50.37
2023-04-20T05:45:05.881Z,57.97
2023-04-20T05:47:32.499Z,57.50
2023-04-20T05:49:59.382Z,54.63
2023-04-20T05:52:25.869Z,53.50
2023-04-20T05:54:52.783Z,56.77
2023-04-20T05:57:19.284Z,55.13
2023-04-20T05:59:45.875Z,53.77
2023-04-20T06:02:12.495Z,56.30
2023-04-20T06:04:39.188Z,54.43
2023-04-20T06:07:05.847Z,52.17
2023-04-20T06:09:32.370Z,49.30
2023-04-20T06:12:00.374Z,49.30
2023-04-20T06:14:26.960Z,47.73
2023-04-20T06:16:53.509Z,46.50
2023-04-20T06:19:20.030Z,49.13
2023-04-20T06:21:46.602Z,54.23
2023-04-20T06:24:13.167Z,49.93
2023-04-20T06:26:39.645Z,50.27
2023-04-20T06:29:06.434Z,48.47
2023-04-20T06:31:33.009Z,47.67
2023-04-20T06:33:59.624Z,45.60
2023-04-20T06:36:27.784Z,42.40
2023-04-20T06:38:55.103Z,49.93
2023-04-20T06:41:21.627Z,45.47
2023-04-20T06:43:48.170Z,38.20
2023-04-20T06:46:14.818Z,43.43
2023-04-20T06:48:42.561Z,37.10
2023-04-20T06:51:09.166Z,38.47
2023-04-20T06:53:35.909Z,39.60
2023-04-20T06:56:02.579Z,43.37
2023-04-20T06:58:29.183Z,42.40
2023-04-20T07:00:55.849Z,41.87
2023-04-20T07:03:22.512Z,44.37
2023-04-20T07:05:49.218Z,41.37
2023-04-20T07:08:16.216Z,47.13
2023-04-20T07:10:42.846Z,43.37
2023-04-20T07:13:09.475Z,49.27
2023-04-20T07:15:36.110Z,45.57
2023-04-20T07:18:03.217Z,45.13
2023-04-20T07:20:29.840Z,47.40
2023-04-20T07:22:56.724Z,48.83
2023-04-20T07:25:24.537Z,49.27
2023-04-20T07:27:51.156Z,53.57
2023-04-20T07:30:20.789Z,46.93
2023-04-20T07:32:47.635Z,54.77
2023-04-20T07:35:14.327Z,51.53
2023-04-20T07:37:41.005Z,48.40
2023-04-20T07:40:10.347Z,48.27
2023-04-20T07:42:38.568Z,54.83
2023-04-20T07:45:05.686Z,48.70
2023-04-20T07:47:33.557Z,49.33
2023-04-20T07:50:00.183Z,46.63
2023-04-20T07:52:26.851Z,42.87
2023-04-20T07:54:59.932Z,45.83
2023-04-20T07:57:26.806Z,42.43
2023-04-20T07:59:55.880Z,45.07
2023-04-20T08:02:22.939Z,41.50
2023-04-20T08:04:50.702Z,46.37
2023-04-20T08:07:18.562Z,43.93
2023-04-20T08:09:47.492Z,48.57
2023-04-20T08:12:16.611Z,44.23
2023-04-20T08:14:45.751Z,48.37
2023-04-20T08:17:12.573Z,47.10
2023-04-20T08:19:40.004Z,44.30
2023-04-20T08:22:07.836Z,47.00
2023-04-20T08:24:35.156Z,46.97
2023-04-20T08:27:02.327Z,41.43
2023-04-20T08:29:29.544Z,45.83
2023-04-20T08:31:56.777Z,45.00
2023-04-20T08:34:24.119Z,42.00
2023-04-20T08:36:51.437Z,40.23
2023-04-20T08:39:21.938Z,39.33
2023-04-20T08:41:50.467Z,35.67
2023-04-20T08:44:20.048Z,35.50
2023-04-20T08:46:50.352Z,46.67
2023-04-20T08:49:17.473Z,44.40
2023-04-20T08:51:44.611Z,49.50
2023-04-20T08:54:11.559Z,47.87
2023-04-20T08:56:38.822Z,42.17
2023-04-20T08:59:05.851Z,32.72
2023-04-20T09:01:36.223Z,43.97
2023-04-20T09:04:06.298Z,43.65
2023-04-20T09:06:36.766Z,33.83
2023-04-20T09:09:03.676Z,35.80
2023-04-20T09:11:31.041Z,35.33
2023-04-20T09:14:07.497Z,31.70
2023-04-20T09:16:34.997Z,33.60
2023-04-20T09:19:01.797Z,26.48
2023-04-20T09:21:28.650Z,27.42
2023-04-20T09:24:06.493Z,28.67
2023-04-20T09:26:34.386Z,25.33
2023-04-20T09:29:04.528Z,24.73
2023-04-20T09:31:31.143Z,36.42
2023-04-20T09:34:04.989Z,33.43
2023-04-20T09:36:37.719Z,26.52
2023-04-20T09:39:07.038Z,27.35
2023-04-20T09:41:34.036Z,32.70
2023-04-20T09:44:01.131Z,29.65
2023-04-20T09:46:32.740Z,32.85
2023-04-20T09:49:01.200Z,28.17
2023-04-20T09:51:31.819Z,29.40
2023-04-20T09:54:03.551Z,20.58
2023-04-20T09:56:30.406Z,16.33
2023-04-20T09:58:59.804Z,21.92
2023-04-20T10:01:26.589Z,21.67
2023-04-20T10:03:56.645Z,23.05
2023-04-20T10:06:42.258Z,20.65
2023-04-20T10:09:09.311Z,24.35
2023-04-20T10:11:52.683Z,22.95
2023-04-20T10:14:24.160Z,26.45
2023-04-20T10:17:04.532Z,29.90
2023-04-20T10:19:40.932Z,24.10
2023-04-20T10:22:10.319Z,23.33
2023-04-20T10:24:44.599Z,18.10
2023-04-20T10:27:18.414Z,16.85
2023-04-20T10:29:45.407Z,18.33
2023-04-20T10:32:32.382Z,21.00
2023-04-20T10:35:02.931Z,18.42
2023-04-20T10:37:32.340Z,15.75
2023-04-20T10:40:00.604Z,13.52
2023-04-20T10:42:27.236Z,15.63
2023-04-20T10:44:54.300Z,20.60
2023-04-20T10:47:30.736Z,19.75
2023-04-20T10:50:16.188Z,19.15
2023-04-20T10:52:43.307Z,18.45
2023-04-20T10:55:23.286Z,17.60
2023-04-20T10:57:50.541Z,14.02
2023-04-20T11:00:17.813Z,14.32
2023-04-20T11:02:53.215Z,13.10
2023-04-20T11:05:20.473Z,13.52
2023-04-20T11:07:53.831Z,9.45
2023-04-20T11:10:20.937Z,13.23
2023-04-20T11:12:47.509Z,16.63
2023-04-20T11:15:14.044Z,11.93
2023-04-20T11:17:40.842Z,13.57
2023-04-20T11:20:16.383Z,12.60
2023-04-20T11:22:43.212Z,12.70
2023-04-20T11:25:10.890Z,12.88
2023-04-20T11:27:37.862Z,10.88
2023-04-20T11:30:08.185Z,12.38
2023-04-20T11:32:35.137Z,10.35
2023-04-20T11:35:06.965Z,11.85
2023-04-20T11:37:34.313Z,13.18
2023-04-20T11:40:01.392Z,7.88
2023-04-20T11:42:28.322Z,12.10
2023-04-20T11:44:55.071Z,8.00
2023-04-20T11:47:21.695Z,10.60
2023-04-20T11:49:49.370Z,10.88
2023-04-20T11:52:16.332Z,10.73
2023-04-20T11:54:43.258Z,9.82
2023-04-20T11:57:09.752Z,10.02
2023-04-20T11:59:36.433Z,9.35
2023-04-20T12:02:04.349Z,7.57
2023-04-20T12:04:31.795Z,7.78
2023-04-20T12:07:03.096Z,11.38
2023-04-20T12:09:30.608Z,9.55
2023-04-20T12:11:57.812Z,10.65
2023-04-20T12:14:24.451Z,10.43
2023-04-20T12:16:51.003Z,10.73
2023-04-20T12:19:17.909Z,10.85
2023-04-20T12:21:46.889Z,13.63
2023-04-20T12:24:13.615Z,9.00
2023-04-20T12:26:40.147Z,9.43
2023-04-20T12:29:07.447Z,10.10
2023-04-20T12:31:34.107Z,9.52
2023-04-20T12:34:00.593Z,11.48
2023-04-20T12:36:28.071Z,8.77
2023-04-20T12:38:56.084Z,10.15
2023-04-20T12:41:23.585Z,12.05
2023-04-20T12:43:50.818Z,8.02
2023-04-20T12:46:17.448Z,9.05
2023-04-20T12:48:46.107Z,11.93
2023-04-20T12:51:13.025Z,9.93
2023-04-20T12:53:39.561Z,11.13
2023-04-20T12:56:06.464Z,10.40
2023-04-20T12:58:32.975Z,9.65
2023-04-20T13:00:59.513Z,9.65
2023-04-20T13:03:26.145Z,9.57
2023-04-20T13:05:52.940Z,6.80
2023-04-20T13:08:20.012Z,6.03
2023-04-20T13:10:46.562Z,12.93
2023-04-20T13:13:13.046Z,5.70
2023-04-20T13:15:39.923Z,10.05
2023-04-20T13:18:06.547Z,6.97
2023-04-20T13:20:33.176Z,7.15
2023-04-20T13:22:59.947Z,9.73
2023-04-20T13:25:26.725Z,8.88
2023-04-20T13:27:56.255Z,8.05
2023-04-20T13:30:24.290Z,6.03
2023-04-20T13:32:51.468Z,8.95
2023-04-20T13:35:18.192Z,4.32
2023-04-20T13:37:45.056Z,6.68
2023-04-20T13:40:11.738Z,5.50
2023-04-20T13:42:38.250Z,7.43
2023-04-20T13:45:05.001Z,6.85
2023-04-20T13:47:31.697Z,5.75
2023-04-20T13:49:58.302Z,6.22
2023-04-20T13:52:24.897Z,7.80
2023-04-20T13:54:51.449Z,5.43
2023-04-20T13:57:17.996Z,6.57
2023-04-20T13:59:44.531Z,9.75
2023-04-20T14:02:11.247Z,11.15
2023-04-20T14:04:37.918Z,7.20
2023-04-20T14:07:04.549Z,7.85
2023-04-20T14:09:31.307Z,5.35
2023-04-20T14:11:57.995Z,5.72
2023-04-20T14:14:24.934Z,2.85
2023-04-20T14:16:51.482Z,5.50
2023-04-20T14:19:18.030Z,7.22
2023-04-20T14:21:46.558Z,10.23
2023-04-20T14:24:13.482Z,4.32
2023-04-20T14:26:40.071Z,3.35
2023-04-20T14:29:06.702Z,6.72
2023-04-20T14:31:35.006Z,6.07
2023-04-20T14:34:01.644Z,5.35
2023-04-20T14:36:28.191Z,4.18
2023-04-20T14:38:55.803Z,7.57
2023-04-20T14:41:22.370Z,6.20
2023-04-20T14:43:48.964Z,8.65
2023-04-20T14:46:15.726Z,5.35
2023-04-20T14:48:42.782Z,3.80
2023-04-20T14:51:09.333Z,7.05
2023-04-20T14:53:36.015Z,5.43
2023-04-20T14:56:02.586Z,5.60
2023-04-20T14:58:29.109Z,5.85
2023-04-20T15:00:55.591Z,10.50
2023-04-20T15:03:22.297Z,5.75
2023-04-20T15:05:49.234Z,4.35
2023-04-20T15:08:15.920Z,2.47
2023-04-20T15:10:42.395Z,10.15
2023-04-20T15:13:08.960Z,4.07
2023-04-20T15:15:47.640Z,3.15
2023-04-20T15:18:16.217Z,8.40
2023-04-20T15:20:42.789Z,8.18
2023-04-20T15:23:09.370Z,5.70
2023-04-20T15:25:35.935Z,6.78
2023-04-20T15:28:02.446Z,6.72
2023-04-20T15:30:29.490Z,5.00
2023-04-20T15:32:56.301Z,6.15
2023-04-20T15:35:32.057Z,6.43
2023-04-20T15:37:58.606Z,5.43
2023-04-20T15:40:25.148Z,5.63
2023-04-20T15:42:51.884Z,6.10
2023-04-20T15:45:18.413Z,4.57
2023-04-20T15:47:44.988Z,4.88
2023-04-20T15:50:11.778Z,3.58
2023-04-20T15:52:38.356Z,7.15
2023-04-20T15:55:05.212Z,6.10
2023-04-20T15:57:31.726Z,3.92
2023-04-20T15:59:58.309Z,5.53
2023-04-20T16:02:24.987Z,6.22
2023-04-20T16:04:51.877Z,2.75
2023-04-20T16:07:18.516Z,4.13
2023-04-20T16:09:45.120Z,5.30
2023-04-20T16:12:11.724Z,6.18
2023-04-20T16:14:38.271Z,6.97
2023-04-20T16:17:04.776Z,10.77
2023-04-20T16:19:32.054Z,5.88
2023-04-20T16:21:58.681Z,5.03
2023-04-20T16:24:25.409Z,7.57
2023-04-20T16:26:51.879Z,7.55
2023-04-20T16:29:18.435Z,3.05
2023-04-20T16:31:45.041Z,6.18
2023-04-20T16:34:11.514Z,8.68
2023-04-20T16:36:37.952Z,6.18
2023-04-20T16:39:06.775Z,5.70
2023-04-20T16:41:33.269Z,7.72
2023-04-20T16:43:59.788Z,8.05
2023-04-20T16:46:26.363Z,4.95
2023-04-20T16:48:54.637Z,7.60
2023-04-20T16:51:21.116Z,6.47
2023-04-20T16:53:47.617Z,9.32
2023-04-20T16:56:14.686Z,6.55
2023-04-20T16:58:41.189Z,7.13
2023-04-20T17:01:07.816Z,5.00
2023-04-20T17:03:34.881Z,5.15
2023-04-20T17:06:07.398Z,9.48
2023-04-20T17:08:34.704Z,7.43
2023-04-20T17:11:02.029Z,7.07
2023-04-20T17:13:28.814Z,9.13
2023-04-20T17:15:55.326Z,4.55
2023-04-20T17:18:21.863Z,3.83
2023-04-20T17:20:48.727Z,7.20
2023-04-20T17:23:18.548Z,11.25
2023-04-20T17:25:47.426Z,7.80
2023-04-20T17:28:14.352Z,8.05
2023-04-20T17:30:41.456Z,9.43
2023-04-20T17:33:12.611Z,10.60
2023-04-20T17:35:39.868Z,9.20
2023-04-20T17:38:06.442Z,8.20
2023-04-20T17:40:33.084Z,6.50
2023-04-20T17:42:59.615Z,7.75
2023-04-20T17:45:26.152Z,8.15
2023-04-20T17:47:53.790Z,12.45
2023-04-20T17:50:20.451Z,10.32
2023-04-20T17:52:46.946Z,10.48
2023-04-20T17:55:13.507Z,9.10
2023-04-20T17:57:40.458Z,10.88
2023-04-20T18:00:07.769Z,7.57
2023-04-20T18:02:34.407Z,13.63
2023-04-20T18:05:01.141Z,13.38
2023-04-20T18:07:27.702Z,7.07
2023-04-20T18:09:54.429Z,9.38
2023-04-20T18:12:21.221Z,9.32
2023-04-20T18:14:47.771Z,12.82
2023-04-20T18:17:14.322Z,8.75
2023-04-20T18:19:43.731Z,10.93
2023-04-20T18:22:10.422Z,10.07
2023-04-20T18:24:38.004Z,8.50
2023-04-20T18:27:04.533Z,9.70
2023-04-20T18:29:31.519Z,5.75
2023-04-20T18:32:01.181Z,11.45
2023-04-20T18:34:31.216Z,9.95
2023-04-20T18:36:58.059Z,10.65
2023-04-20T18:39:24.763Z,11.02
2023-04-20T18:41:51.295Z,5.85
2023-04-20T18:44:18.245Z,15.38
2023-04-20T18:46:45.108Z,10.13
2023-04-20T18:49:11.994Z,11.95
2023-04-20T18:51:38.529Z,9.38
2023-04-20T18:54:05.117Z,7.57
2023-04-20T18:56:32.247Z,12.23
2023-04-20T18:59:00.425Z,9.93
2023-04-20T19:01:27.423Z,14.90
2023-04-20T19:03:54.325Z,16.65
2023-04-20T19:06:23.928Z,15.77
2023-04-20T19:08:51.082Z,18.98
2023-04-20T19:11:17.895Z,13.75
2023-04-20T19:13:45.423Z,18.55
2023-04-20T19:16:12.376Z,18.90
2023-04-20T19:18:39.100Z,20.00
2023-04-20T19:21:06.473Z,20.65
2023-04-20T19:23:33.039Z,16.30
2023-04-20T19:25:59.635Z,16.90
2023-04-20T19:28:26.107Z,12.30
2023-04-20T19:30:52.709Z,12.50
2023-04-20T19:33:20.780Z,21.45
2023-04-20T19:35:53.744Z,12.20
2023-04-20T19:38:20.716Z,16.88
2023-04-20T19:40:47.625Z,19.05
2023-04-20T19:43:14.501Z,12.82
2023-04-20T19:45:41.315Z,14.32
2023-04-20T19:48:07.989Z,17.83
2023-04-20T19:50:34.515Z,18.33
2023-04-20T19:53:01.064Z,15.85
2023-04-20T19:55:27.611Z,12.48
2023-04-20T19:57:54.373Z,19.75
2023-04-20T20:00:21.078Z,14.32
2023-04-20T20:02:47.765Z,20.13
2023-04-20T20:05:14.459Z,13.50
2023-04-20T20:07:40.938Z,15.50
2023-04-20T20:10:07.594Z,14.65
2023-04-20T20:12:34.107Z,14.68
2023-04-20T20:15:01.070Z,15.00
2023-04-20T20:17:27.789Z,17.15
2023-04-20T20:19:55.735Z,9.80
2023-04-20T20:22:22.633Z,15.25
2023-04-20T20:24:51.270Z,22.25
2023-04-20T20:27:17.883Z,23.02
2023-04-20T20:29:44.372Z,22.17
2023-04-20T20:32:10.832Z,22.48
2023-04-20T20:34:37.338Z,25.60
2023-04-20T20:37:05.164Z,25.70
2023-04-20T20:39:32.508Z,25.02
2023-04-20T20:41:59.778Z,24.77
2023-04-20T20:44:28.047Z,27.00
2023-04-20T20:46:54.654Z,22.17
2023-04-20T20:49:21.648Z,25.08
2023-04-20T20:51:48.263Z,17.63
2023-04-20T20:54:14.908Z,24.95
2023-04-20T20:56:41.622Z,20.77
2023-04-20T20:59:08.185Z,19.40
2023-04-20T21:01:34.733Z,19.60
2023-04-20T21:04:01.557Z,29.17
2023-04-20T21:06:28.339Z,35.15
2023-04-20T21:08:55.229Z,30.92
2023-04-20T21:11:21.924Z,30.65
2023-04-20T21:13:48.436Z,32.20
2023-04-20T21:16:14.952Z,29.88
2023-04-20T21:18:41.574Z,23.83
2023-04-20T21:21:11.208Z,27.80
2023-04-20T21:23:37.742Z,23.10
2023-04-20T21:26:04.355Z,29.10
2023-04-20T21:28:31.046Z,30.60
2023-04-20T21:30:57.530Z,28.05
2023-04-20T21:33:24.057Z,18.92
2023-04-20T21:35:50.624Z,22.33
2023-04-20T21:38:17.235Z,19.70
2023-04-20T21:40:43.795Z,26.80
2023-04-20T21:43:10.359Z,24.80
2023-04-20T21:45:37.026Z,16.08
2023-04-20T21:48:03.601Z,26.23
2023-04-20T21:50:30.178Z,13.55
2023-04-20T21:52:56.700Z,20.92
2023-04-20T21:55:23.265Z,19.92
2023-04-20T21:57:50.000Z,19.63
2023-04-20T22:00:18.221Z,19.38
2023-04-20T22:02:45.030Z,20.77
2023-04-20T22:05:11.954Z,23.58
2023-04-20T22:07:38.775Z,26.17
2023-04-20T22:10:06.194Z,20.63
2023-04-20T22:12:39.308Z,21.23
2023-04-20T22:15:08.689Z,21.25
2023-04-20T22:17:35.333Z,20.98
2023-04-20T22:20:02.046Z,19.13
2023-04-20T22:22:28.546Z,21.92
2023-04-20T22:24:55.045Z,23.67
2023-04-20T22:27:21.525Z,24.33
2023-04-20T22:29:48.067Z,21.52
2023-04-20T22:32:14.607Z,20.05
2023-04-20T22:34:41.252Z,31.55
2023-04-20T22:37:08.839Z,22.13
2023-04-20T22:39:35.737Z,22.27
2023-04-20T22:42:02.383Z,21.25
2023-04-20T22:44:28.957Z,18.00
2023-04-20T22:46:55.753Z,20.77
2023-04-20T22:49:23.273Z,21.02
2023-04-20T22:51:49.893Z,24.40
2023-04-20T22:54:16.409Z,24.70
2023-04-20T22:56:43.023Z,23.98
2023-04-20T22:59:09.481Z,23.38
2023-04-20T23:01:35.922Z,24.27
2023-04-20T23:04:02.848Z,19.83
2023-04-20T23:06:29.829Z,23.30
2023-04-20T23:08:59.202Z,25.65
2023-04-20T23:11:26.838Z,24.83
2023-04-20T23:13:53.434Z,23.00
2023-04-20T23:16:19.988Z,24.20
2023-04-20T23:18:46.490Z,22.00
2023-04-20T23:21:12.956Z,24.20
2023-04-20T23:23:39.470Z,25.13
2023-04-20T23:26:06.045Z,22.83
2023-04-20T23:28:32.498Z,20.25
2023-04-20T23:30:58.972Z,25.25
2023-04-20T23:33:25.465Z,25.13
2023-04-20T23:35:51.923Z,24.23
2023-04-20T23:38:19.167Z,23.58
2023-04-20T23:40:46.122Z,22.08
2023-04-20T23:43:12.582Z,25.77
2023-04-20T23:45:39.142Z,24.43
2023-04-20T23:48:06.061Z,20.30
2023-04-20T23:50:33.221Z,23.30
2023-04-20T23:52:59.928Z,30.63
2023-04-20T23:55:26.409Z,21.67
2023-04-20T23:57:52.996Z,27.17
